sensor_id;sensor_type;location;lat;lon;timestamp;temperature;humidity
52267;DHT22;38223;50.940;4.034;2023-04-30T00:01:18;11.00;99.90
52267;DHT22;38223;50.940;4.034;2023-04-30T00:03:47;10.90;99.90
52267;DHT22;38223;50.940;4.034;2023-04-30T00:06:21;11.00;99.90
52267;DHT22;38223;50.940;4.034;2023-04-30T00:08:52;11.00;99.90
52267;DHT22;38223;50.940;4.034;2023-04-30T00:11:26;11.00;99.90
52267;DHT22;38223;50.940;4.034;2023-04-30T00:13:55;11.00;99.90
52267;DHT22;38223;50.940;4.034;2023-04-30T00:16:25;10.90;99.90
52267;DHT22;38223;50.940;4.034;2023-04-30T00:19:00;10.90;99.90
52267;DHT22;38223;50.940;4.034;2023-04-30T00:21:29;10.80;99.90
52267;DHT22;38223;50.940;4.034;2023-04-30T00:24:00;10.80;99.90
52267;DHT22;38223;50.940;4.034;2023-04-30T00:26:34;10.90;99.90
52267;DHT22;38223;50.940;4.034;2023-04-30T00:29:08;10.90;99.90
52267;DHT22;38223;50.940;4.034;2023-04-30T00:31:40;10.80;99.90
52267;DHT22;38223;50.940;4.034;2023-04-30T00:36:56;11.00;99.90
52267;DHT22;38223;50.940;4.034;2023-04-30T00:39:29;11.00;99.90
52267;DHT22;38223;50.940;4.034;2023-04-30T00:42:01;10.90;99.90
52267;DHT22;38223;50.940;4.034;2023-04-30T00:44:29;10.90;99.90
52267;DHT22;38223;50.940;4.034;2023-04-30T00:46:58;11.00;99.90
52267;DHT22;38223;50.940;4.034;2023-04-30T00:49:34;11.10;99.90
52267;DHT22;38223;50.940;4.034;2023-04-30T00:52:05;11.10;99.90
52267;DHT22;38223;50.940;4.034;2023-04-30T00:54:40;11.10;99.90
52267;DHT22;38223;50.940;4.034;2023-04-30T00:57:12;11.20;99.90
52267;DHT22;38223;50.940;4.034;2023-04-30T00:59:47;11.10;99.90
52267;DHT22;38223;50.940;4.034;2023-04-30T01:02:19;11.10;99.90
52267;DHT22;38223;50.940;4.034;2023-04-30T01:04:55;11.00;99.90
52267;DHT22;38223;50.940;4.034;2023-04-30T01:07:30;10.90;99.90
52267;DHT22;38223;50.940;4.034;2023-04-30T01:13:05;11.20;99.90
52267;DHT22;38223;50.940;4.034;2023-04-30T01:15:42;11.20;99.90
52267;DHT22;38223;50.940;4.034;2023-04-30T01:21:03;10.90;99.90
52267;DHT22;38223;50.940;4.034;2023-04-30T01:26:58;10.70;99.90
52267;DHT22;38223;50.940;4.034;2023-04-30T01:29:25;10.50;99.90
52267;DHT22;38223;50.940;4.034;2023-04-30T01:31:58;10.40;99.90
52267;DHT22;38223;50.940;4.034;2023-04-30T01:34:28;10.40;99.90
52267;DHT22;38223;50.940;4.034;2023-04-30T01:37:10;10.50;99.90
52267;DHT22;38223;50.940;4.034;2023-04-30T01:42:20;10.40;99.90
52267;DHT22;38223;50.940;4.034;2023-04-30T01:45:31;10.30;99.90
52267;DHT22;38223;50.940;4.034;2023-04-30T01:48:00;10.30;99.90
52267;DHT22;38223;50.940;4.034;2023-04-30T01:53:13;10.30;99.90
52267;DHT22;38223;50.940;4.034;2023-04-30T01:55:48;10.20;99.90
52267;DHT22;38223;50.940;4.034;2023-04-30T01:58:17;10.20;99.90
52267;DHT22;38223;50.940;4.034;2023-04-30T02:00:49;10.30;99.90
52267;DHT22;38223;50.940;4.034;2023-04-30T02:03:21;10.20;99.90
52267;DHT22;38223;50.940;4.034;2023-04-30T02:05:53;10.20;99.90
52267;DHT22;38223;50.940;4.034;2023-04-30T02:08:28;10.20;99.90
52267;DHT22;38223;50.940;4.034;2023-04-30T02:10:59;10.20;99.90
52267;DHT22;38223;50.940;4.034;2023-04-30T02:13:31;10.20;99.90
52267;DHT22;38223;50.940;4.034;2023-04-30T02:16:02;10.10;99.90
52267;DHT22;38223;50.940;4.034;2023-04-30T02:18:49;10.10;99.90
52267;DHT22;38223;50.940;4.034;2023-04-30T02:21:17;10.10;99.90
52267;DHT22;38223;50.940;4.034;2023-04-30T02:23:47;10.00;99.90
52267;DHT22;38223;50.940;4.034;2023-04-30T02:26:15;10.10;99.90
52267;DHT22;38223;50.940;4.034;2023-04-30T02:28:45;10.30;99.90
52267;DHT22;38223;50.940;4.034;2023-04-30T02:31:13;10.20;99.90
52267;DHT22;38223;50.940;4.034;2023-04-30T02:33:41;10.20;99.90
52267;DHT22;38223;50.940;4.034;2023-04-30T02:36:08;10.20;99.90
52267;DHT22;38223;50.940;4.034;2023-04-30T02:38:44;10.10;99.90
52267;DHT22;38223;50.940;4.034;2023-04-30T02:41:16;10.10;99.90
52267;DHT22;38223;50.940;4.034;2023-04-30T02:44:03;10.10;99.90
52267;DHT22;38223;50.940;4.034;2023-04-30T02:46:40;10.00;99.90
52267;DHT22;38223;50.940;4.034;2023-04-30T02:49:08;10.00;99.90
52267;DHT22;38223;50.940;4.034;2023-04-30T02:51:36;10.00;99.90
52267;DHT22;38223;50.940;4.034;2023-04-30T02:54:04;10.10;99.90
52267;DHT22;38223;50.940;4.034;2023-04-30T02:56:31;9.90;99.90
52267;DHT22;38223;50.940;4.034;2023-04-30T02:59:05;9.90;99.90
52267;DHT22;38223;50.940;4.034;2023-04-30T03:01:33;9.90;99.90
52267;DHT22;38223;50.940;4.034;2023-04-30T03:04:05;9.90;99.90
52267;DHT22;38223;50.940;4.034;2023-04-30T03:06:35;9.90;99.90
52267;DHT22;38223;50.940;4.034;2023-04-30T03:09:07;9.90;99.90
52267;DHT22;38223;50.940;4.034;2023-04-30T03:11:35;9.70;99.90
52267;DHT22;38223;50.940;4.034;2023-04-30T03:14:04;9.70;99.90
52267;DHT22;38223;50.940;4.034;2023-04-30T03:16:33;9.70;99.90
52267;DHT22;38223;50.940;4.034;2023-04-30T03:19:06;9.70;99.90
52267;DHT22;38223;50.940;4.034;2023-04-30T03:21:36;9.60;99.90
52267;DHT22;38223;50.940;4.034;2023-04-30T03:24:06;9.60;99.90
52267;DHT22;38223;50.940;4.034;2023-04-30T03:26:34;9.70;99.90
52267;DHT22;38223;50.940;4.034;2023-04-30T03:29:02;9.80;99.90
52267;DHT22;38223;50.940;4.034;2023-04-30T03:31:29;9.80;99.90
52267;DHT22;38223;50.940;4.034;2023-04-30T03:33:59;9.80;99.90
52267;DHT22;38223;50.940;4.034;2023-04-30T03:36:31;9.80;99.90
52267;DHT22;38223;50.940;4.034;2023-04-30T03:39:02;9.80;99.90
52267;DHT22;38223;50.940;4.034;2023-04-30T03:41:33;9.80;99.90
52267;DHT22;38223;50.940;4.034;2023-04-30T03:44:09;9.90;99.90
52267;DHT22;38223;50.940;4.034;2023-04-30T03:46:39;10.00;99.90
52267;DHT22;38223;50.940;4.034;2023-04-30T03:49:11;9.80;99.90
52267;DHT22;38223;50.940;4.034;2023-04-30T03:51:41;9.70;99.90
52267;DHT22;38223;50.940;4.034;2023-04-30T03:54:08;9.60;99.90
52267;DHT22;38223;50.940;4.034;2023-04-30T03:56:39;9.50;99.90
52267;DHT22;38223;50.940;4.034;2023-04-30T03:59:08;9.60;99.90
52267;DHT22;38223;50.940;4.034;2023-04-30T04:01:39;9.60;99.90
52267;DHT22;38223;50.940;4.034;2023-04-30T04:04:08;9.70;99.90
52267;DHT22;38223;50.940;4.034;2023-04-30T04:06:36;9.70;99.90
52267;DHT22;38223;50.940;4.034;2023-04-30T04:09:03;9.60;99.90
52267;DHT22;38223;50.940;4.034;2023-04-30T04:11:32;9.70;99.90
52267;DHT22;38223;50.940;4.034;2023-04-30T04:14:03;9.70;99.90
52267;DHT22;38223;50.940;4.034;2023-04-30T04:16:33;9.60;99.90
52267;DHT22;38223;50.940;4.034;2023-04-30T04:19:06;9.60;99.90
52267;DHT22;38223;50.940;4.034;2023-04-30T04:21:44;9.50;99.90
52267;DHT22;38223;50.940;4.034;2023-04-30T04:24:20;9.50;99.90
52267;DHT22;38223;50.940;4.034;2023-04-30T04:26:48;9.60;99.90
52267;DHT22;38223;50.940;4.034;2023-04-30T04:29:17;9.60;99.90
52267;DHT22;38223;50.940;4.034;2023-04-30T04:31:55;9.70;99.90
52267;DHT22;38223;50.940;4.034;2023-04-30T04:34:28;9.60;99.90
52267;DHT22;38223;50.940;4.034;2023-04-30T04:37:02;9.50;99.90
52267;DHT22;38223;50.940;4.034;2023-04-30T04:39:31;9.50;99.90
52267;DHT22;38223;50.940;4.034;2023-04-30T04:42:01;9.40;99.90
52267;DHT22;38223;50.940;4.034;2023-04-30T04:44:30;9.50;99.90
52267;DHT22;38223;50.940;4.034;2023-04-30T04:47:03;9.40;99.90
52267;DHT22;38223;50.940;4.034;2023-04-30T04:49:53;9.50;99.90
52267;DHT22;38223;50.940;4.034;2023-04-30T04:52:23;9.60;99.90
52267;DHT22;38223;50.940;4.034;2023-04-30T04:54:50;9.70;99.90
52267;DHT22;38223;50.940;4.034;2023-04-30T04:57:22;9.70;99.90
52267;DHT22;38223;50.940;4.034;2023-04-30T04:59:50;9.50;99.90
52267;DHT22;38223;50.940;4.034;2023-04-30T05:02:24;9.50;99.90
52267;DHT22;38223;50.940;4.034;2023-04-30T05:04:55;9.50;99.90
52267;DHT22;38223;50.940;4.034;2023-04-30T05:07:24;9.50;99.90
52267;DHT22;38223;50.940;4.034;2023-04-30T05:09:52;9.50;99.90
52267;DHT22;38223;50.940;4.034;2023-04-30T05:12:22;9.50;99.90
52267;DHT22;38223;50.940;4.034;2023-04-30T05:14:49;9.60;99.90
52267;DHT22;38223;50.940;4.034;2023-04-30T05:17:19;9.70;99.90
52267;DHT22;38223;50.940;4.034;2023-04-30T05:19:51;9.70;99.90
52267;DHT22;38223;50.940;4.034;2023-04-30T05:22:22;9.70;99.90
52267;DHT22;38223;50.940;4.034;2023-04-30T05:24:50;9.60;99.90
52267;DHT22;38223;50.940;4.034;2023-04-30T05:27:18;9.50;99.90
52267;DHT22;38223;50.940;4.034;2023-04-30T05:29:46;9.40;99.90
52267;DHT22;38223;50.940;4.034;2023-04-30T05:32:16;9.20;99.90
52267;DHT22;38223;50.940;4.034;2023-04-30T05:34:46;9.20;99.90
52267;DHT22;38223;50.940;4.034;2023-04-30T05:37:15;9.10;99.90
52267;DHT22;38223;50.940;4.034;2023-04-30T05:39:47;9.10;99.90
52267;DHT22;38223;50.940;4.034;2023-04-30T05:42:15;9.30;99.90
52267;DHT22;38223;50.940;4.034;2023-04-30T05:44:50;9.30;99.90
52267;DHT22;38223;50.940;4.034;2023-04-30T05:47:23;9.40;99.90
52267;DHT22;38223;50.940;4.034;2023-04-30T05:49:57;9.60;99.90
52267;DHT22;38223;50.940;4.034;2023-04-30T05:52:29;9.70;99.90
52267;DHT22;38223;50.940;4.034;2023-04-30T05:55:01;9.70;99.90
52267;DHT22;38223;50.940;4.034;2023-04-30T05:57:35;9.60;99.90
52267;DHT22;38223;50.940;4.034;2023-04-30T06:00:10;9.60;99.90
52267;DHT22;38223;50.940;4.034;2023-04-30T06:02:39;9.50;99.90
52267;DHT22;38223;50.940;4.034;2023-04-30T06:05:09;9.40;99.90
52267;DHT22;38223;50.940;4.034;2023-04-30T06:07:37;9.40;99.90
52267;DHT22;38223;50.940;4.034;2023-04-30T06:10:05;9.50;99.90
52267;DHT22;38223;50.940;4.034;2023-04-30T06:12:34;9.50;99.90
52267;DHT22;38223;50.940;4.034;2023-04-30T06:15:03;9.50;99.90
52267;DHT22;38223;50.940;4.034;2023-04-30T06:17:30;9.60;99.90
52267;DHT22;38223;50.940;4.034;2023-04-30T06:19:58;9.70;99.90
52267;DHT22;38223;50.940;4.034;2023-04-30T06:22:29;9.90;99.90
52267;DHT22;38223;50.940;4.034;2023-04-30T06:24:59;9.90;99.90
52267;DHT22;38223;50.940;4.034;2023-04-30T06:27:29;10.00;99.90
52267;DHT22;38223;50.940;4.034;2023-04-30T06:29:58;10.20;99.90
52267;DHT22;38223;50.940;4.034;2023-04-30T06:32:29;10.20;99.90
52267;DHT22;38223;50.940;4.034;2023-04-30T06:34:57;10.30;99.90
52267;DHT22;38223;50.940;4.034;2023-04-30T06:37:26;10.40;99.90
52267;DHT22;38223;50.940;4.034;2023-04-30T06:40:00;10.40;99.90
52267;DHT22;38223;50.940;4.034;2023-04-30T06:42:32;10.50;99.90
52267;DHT22;38223;50.940;4.034;2023-04-30T06:45:03;10.40;99.90
52267;DHT22;38223;50.940;4.034;2023-04-30T06:47:40;10.60;99.90
52267;DHT22;38223;50.940;4.034;2023-04-30T06:50:10;10.60;99.90
52267;DHT22;38223;50.940;4.034;2023-04-30T06:52:41;10.70;99.90
52267;DHT22;38223;50.940;4.034;2023-04-30T06:55:09;10.80;99.90
52267;DHT22;38223;50.940;4.034;2023-04-30T06:57:38;11.00;99.90
52267;DHT22;38223;50.940;4.034;2023-04-30T07:00:06;11.00;99.90
52267;DHT22;38223;50.940;4.034;2023-04-30T07:02:38;11.00;99.90
52267;DHT22;38223;50.940;4.034;2023-04-30T07:05:09;11.10;99.90
52267;DHT22;38223;50.940;4.034;2023-04-30T07:07:38;11.20;99.90
52267;DHT22;38223;50.940;4.034;2023-04-30T07:10:07;11.10;99.90
52267;DHT22;38223;50.940;4.034;2023-04-30T07:12:41;11.10;99.90
52267;DHT22;38223;50.940;4.034;2023-04-30T07:15:15;11.10;99.90
52267;DHT22;38223;50.940;4.034;2023-04-30T07:17:51;11.10;99.90
52267;DHT22;38223;50.940;4.034;2023-04-30T07:20:20;11.30;99.90
52267;DHT22;38223;50.940;4.034;2023-04-30T07:22:48;11.40;99.90
52267;DHT22;38223;50.940;4.034;2023-04-30T07:25:16;11.50;99.90
52267;DHT22;38223;50.940;4.034;2023-04-30T07:27:43;11.50;99.90
52267;DHT22;38223;50.940;4.034;2023-04-30T07:30:12;11.50;99.90
52267;DHT22;38223;50.940;4.034;2023-04-30T07:32:41;11.60;99.90
52267;DHT22;38223;50.940;4.034;2023-04-30T07:35:09;11.60;99.90
52267;DHT22;38223;50.940;4.034;2023-04-30T07:37:37;11.70;99.90
52267;DHT22;38223;50.940;4.034;2023-04-30T07:40:05;11.70;99.90
52267;DHT22;38223;50.940;4.034;2023-04-30T07:42:35;11.70;99.90
52267;DHT22;38223;50.940;4.034;2023-04-30T07:45:02;11.70;99.90
52267;DHT22;38223;50.940;4.034;2023-04-30T07:47:30;11.80;99.90
52267;DHT22;38223;50.940;4.034;2023-04-30T07:49:58;11.90;99.90
52267;DHT22;38223;50.940;4.034;2023-04-30T07:52:27;12.00;99.90
52267;DHT22;38223;50.940;4.034;2023-04-30T07:55:04;12.20;99.90
52267;DHT22;38223;50.940;4.034;2023-04-30T07:57:31;12.20;99.90
52267;DHT22;38223;50.940;4.034;2023-04-30T08:00:01;12.30;99.90
52267;DHT22;38223;50.940;4.034;2023-04-30T08:02:34;12.40;99.90
52267;DHT22;38223;50.940;4.034;2023-04-30T08:05:03;12.60;99.90
52267;DHT22;38223;50.940;4.034;2023-04-30T08:07:31;12.60;99.90
52267;DHT22;38223;50.940;4.034;2023-04-30T08:09:58;12.70;99.90
52267;DHT22;38223;50.940;4.034;2023-04-30T08:12:31;12.60;99.90
52267;DHT22;38223;50.940;4.034;2023-04-30T08:15:05;12.70;99.90
52267;DHT22;38223;50.940;4.034;2023-04-30T08:17:34;12.80;99.90
52267;DHT22;38223;50.940;4.034;2023-04-30T08:20:06;12.80;99.90
52267;DHT22;38223;50.940;4.034;2023-04-30T08:22:36;12.80;99.90
52267;DHT22;38223;50.940;4.034;2023-04-30T08:25:04;12.80;99.90
52267;DHT22;38223;50.940;4.034;2023-04-30T08:27:32;12.80;99.90
52267;DHT22;38223;50.940;4.034;2023-04-30T08:29:59;12.90;99.90
52267;DHT22;38223;50.940;4.034;2023-04-30T08:32:27;13.10;99.90
52267;DHT22;38223;50.940;4.034;2023-04-30T08:34:56;13.10;99.90
52267;DHT22;38223;50.940;4.034;2023-04-30T08:37:23;13.20;99.90
52267;DHT22;38223;50.940;4.034;2023-04-30T08:39:59;13.30;99.90
52267;DHT22;38223;50.940;4.034;2023-04-30T08:42:32;13.40;99.90
52267;DHT22;38223;50.940;4.034;2023-04-30T08:45:01;13.60;99.90
52267;DHT22;38223;50.940;4.034;2023-04-30T08:47:30;13.80;99.90
52267;DHT22;38223;50.940;4.034;2023-04-30T08:49:57;14.00;99.90
52267;DHT22;38223;50.940;4.034;2023-04-30T08:52:26;13.90;99.90
52267;DHT22;38223;50.940;4.034;2023-04-30T08:54:58;13.80;99.90
52267;DHT22;38223;50.940;4.034;2023-04-30T08:57:30;13.80;99.90
52267;DHT22;38223;50.940;4.034;2023-04-30T08:59:59;13.80;99.90
52267;DHT22;38223;50.940;4.034;2023-04-30T09:02:32;13.90;99.90
52267;DHT22;38223;50.940;4.034;2023-04-30T09:05:09;13.90;99.90
52267;DHT22;38223;50.940;4.034;2023-04-30T09:07:42;14.00;99.90
52267;DHT22;38223;50.940;4.034;2023-04-30T09:10:19;14.00;99.90
52267;DHT22;38223;50.940;4.034;2023-04-30T09:13:03;14.00;99.90
52267;DHT22;38223;50.940;4.034;2023-04-30T09:15:39;14.10;99.90
52267;DHT22;38223;50.940;4.034;2023-04-30T09:18:16;14.20;99.90
52267;DHT22;38223;50.940;4.034;2023-04-30T09:21:00;14.30;99.90
52267;DHT22;38223;50.940;4.034;2023-04-30T09:23:32;14.30;99.90
52267;DHT22;38223;50.940;4.034;2023-04-30T09:26:02;14.40;99.90
52267;DHT22;38223;50.940;4.034;2023-04-30T09:28:30;14.40;99.90
52267;DHT22;38223;50.940;4.034;2023-04-30T09:31:01;14.50;99.90
52267;DHT22;38223;50.940;4.034;2023-04-30T09:33:35;14.50;99.90
52267;DHT22;38223;50.940;4.034;2023-04-30T09:36:07;14.50;99.90
52267;DHT22;38223;50.940;4.034;2023-04-30T09:38:35;14.50;99.90
52267;DHT22;38223;50.940;4.034;2023-04-30T09:41:10;14.60;99.90
52267;DHT22;38223;50.940;4.034;2023-04-30T09:43:43;14.80;99.90
52267;DHT22;38223;50.940;4.034;2023-04-30T09:46:09;14.80;99.90
52267;DHT22;38223;50.940;4.034;2023-04-30T09:48:40;15.00;99.90
52267;DHT22;38223;50.940;4.034;2023-04-30T09:51:15;15.00;99.90
52267;DHT22;38223;50.940;4.034;2023-04-30T09:53:45;15.10;99.90
52267;DHT22;38223;50.940;4.034;2023-04-30T09:56:14;15.20;99.90
52267;DHT22;38223;50.940;4.034;2023-04-30T09:58:43;15.30;99.90
52267;DHT22;38223;50.940;4.034;2023-04-30T10:01:18;15.40;99.90
52267;DHT22;38223;50.940;4.034;2023-04-30T10:03:48;15.40;99.90
52267;DHT22;38223;50.940;4.034;2023-04-30T10:06:23;15.30;99.90
52267;DHT22;38223;50.940;4.034;2023-04-30T10:08:55;15.30;99.90
52267;DHT22;38223;50.940;4.034;2023-04-30T10:11:28;15.30;99.90
52267;DHT22;38223;50.940;4.034;2023-04-30T10:14:02;15.30;99.90
52267;DHT22;38223;50.940;4.034;2023-04-30T10:16:50;15.30;99.90
52267;DHT22;38223;50.940;4.034;2023-04-30T10:19:24;15.30;99.90
52267;DHT22;38223;50.940;4.034;2023-04-30T10:21:52;15.40;99.90
52267;DHT22;38223;50.940;4.034;2023-04-30T10:24:20;15.40;99.90
52267;DHT22;38223;50.940;4.034;2023-04-30T10:26:49;15.60;99.90
52267;DHT22;38223;50.940;4.034;2023-04-30T10:29:20;15.70;99.90
52267;DHT22;38223;50.940;4.034;2023-04-30T10:31:50;16.00;99.90
52267;DHT22;38223;50.940;4.034;2023-04-30T10:34:42;16.00;99.90
52267;DHT22;38223;50.940;4.034;2023-04-30T10:37:29;15.90;99.90
52267;DHT22;38223;50.940;4.034;2023-04-30T10:39:59;15.60;99.90
52267;DHT22;38223;50.940;4.034;2023-04-30T10:42:33;15.60;99.90
52267;DHT22;38223;50.940;4.034;2023-04-30T10:45:04;15.50;99.90
52267;DHT22;38223;50.940;4.034;2023-04-30T10:47:31;15.60;99.90
52267;DHT22;38223;50.940;4.034;2023-04-30T10:50:07;15.70;99.90
52267;DHT22;38223;50.940;4.034;2023-04-30T10:52:43;15.80;99.90
52267;DHT22;38223;50.940;4.034;2023-04-30T10:55:15;15.80;99.90
52267;DHT22;38223;50.940;4.034;2023-04-30T10:57:44;15.90;99.90
52267;DHT22;38223;50.940;4.034;2023-04-30T11:00:18;15.90;99.90
52267;DHT22;38223;50.940;4.034;2023-04-30T11:03:06;16.00;99.90
52267;DHT22;38223;50.940;4.034;2023-04-30T11:05:38;15.90;99.90
52267;DHT22;38223;50.940;4.034;2023-04-30T11:08:10;15.90;99.90
52267;DHT22;38223;50.940;4.034;2023-04-30T11:10:40;16.00;99.90
52267;DHT22;38223;50.940;4.034;2023-04-30T11:13:07;16.00;99.90
52267;DHT22;38223;50.940;4.034;2023-04-30T11:15:40;16.40;99.90
52267;DHT22;38223;50.940;4.034;2023-04-30T11:18:08;16.50;99.90
52267;DHT22;38223;50.940;4.034;2023-04-30T11:20:47;16.50;99.90
52267;DHT22;38223;50.940;4.034;2023-04-30T11:23:21;16.50;99.90
52267;DHT22;38223;50.940;4.034;2023-04-30T11:25:52;16.70;99.90
52267;DHT22;38223;50.940;4.034;2023-04-30T11:28:27;16.80;99.90
52267;DHT22;38223;50.940;4.034;2023-04-30T11:30:59;17.00;99.90
52267;DHT22;38223;50.940;4.034;2023-04-30T11:33:29;17.30;99.90
52267;DHT22;38223;50.940;4.034;2023-04-30T11:36:03;17.10;99.90
52267;DHT22;38223;50.940;4.034;2023-04-30T11:38:39;16.90;99.90
52267;DHT22;38223;50.940;4.034;2023-04-30T11:41:12;16.80;99.90
52267;DHT22;38223;50.940;4.034;2023-04-30T11:43:48;16.90;99.90
52267;DHT22;38223;50.940;4.034;2023-04-30T11:46:19;16.80;99.90
52267;DHT22;38223;50.940;4.034;2023-04-30T11:48:51;16.90;99.90
52267;DHT22;38223;50.940;4.034;2023-04-30T11:51:26;17.00;99.90
52267;DHT22;38223;50.940;4.034;2023-04-30T11:53:57;17.00;99.90
52267;DHT22;38223;50.940;4.034;2023-04-30T11:56:24;17.30;99.90
52267;DHT22;38223;50.940;4.034;2023-04-30T11:58:53;17.20;99.90
52267;DHT22;38223;50.940;4.034;2023-04-30T12:01:27;17.00;99.90
52267;DHT22;38223;50.940;4.034;2023-04-30T12:03:58;17.00;99.90
52267;DHT22;38223;50.940;4.034;2023-04-30T12:06:27;17.20;99.90
52267;DHT22;38223;50.940;4.034;2023-04-30T12:08:58;17.20;99.90
52267;DHT22;38223;50.940;4.034;2023-04-30T12:11:29;17.30;99.90
52267;DHT22;38223;50.940;4.034;2023-04-30T12:13:59;17.40;99.90
52267;DHT22;38223;50.940;4.034;2023-04-30T12:16:37;17.40;99.90
52267;DHT22;38223;50.940;4.034;2023-04-30T12:18:57;17.40;99.90
52267;DHT22;38223;50.940;4.034;2023-04-30T12:21:24;17.30;99.90
52267;DHT22;38223;50.940;4.034;2023-04-30T12:23:53;17.20;99.90
52267;DHT22;38223;50.940;4.034;2023-04-30T12:26:21;17.30;99.90
52267;DHT22;38223;50.940;4.034;2023-04-30T12:28:49;17.40;99.90
52267;DHT22;38223;50.940;4.034;2023-04-30T12:31:18;17.60;99.90
52267;DHT22;38223;50.940;4.034;2023-04-30T12:33:53;17.50;99.90
52267;DHT22;38223;50.940;4.034;2023-04-30T12:36:28;17.50;99.90
52267;DHT22;38223;50.940;4.034;2023-04-30T12:39:07;17.60;99.90
52267;DHT22;38223;50.940;4.034;2023-04-30T12:41:46;17.60;99.90
52267;DHT22;38223;50.940;4.034;2023-04-30T12:44:16;17.60;99.90
52267;DHT22;38223;50.940;4.034;2023-04-30T12:46:44;17.60;99.90
52267;DHT22;38223;50.940;4.034;2023-04-30T12:49:28;17.60;99.90
52267;DHT22;38223;50.940;4.034;2023-04-30T12:52:09;17.50;99.90
52267;DHT22;38223;50.940;4.034;2023-04-30T12:54:44;17.50;99.90
52267;DHT22;38223;50.940;4.034;2023-04-30T12:57:12;17.70;99.90
52267;DHT22;38223;50.940;4.034;2023-04-30T13:02:24;17.90;99.90
52267;DHT22;38223;50.940;4.034;2023-04-30T13:04:53;18.00;99.90
52267;DHT22;38223;50.940;4.034;2023-04-30T13:07:21;18.20;99.90
52267;DHT22;38223;50.940;4.034;2023-04-30T13:09:48;18.10;99.90
52267;DHT22;38223;50.940;4.034;2023-04-30T13:12:16;18.10;99.90
52267;DHT22;38223;50.940;4.034;2023-04-30T13:14:46;18.20;99.90
52267;DHT22;38223;50.940;4.034;2023-04-30T13:17:19;18.00;99.90
52267;DHT22;38223;50.940;4.034;2023-04-30T13:19:53;18.00;99.90
52267;DHT22;38223;50.940;4.034;2023-04-30T13:22:22;17.90;99.90
52267;DHT22;38223;50.940;4.034;2023-04-30T13:24:58;18.00;99.90
52267;DHT22;38223;50.940;4.034;2023-04-30T13:27:29;18.00;99.90
52267;DHT22;38223;50.940;4.034;2023-04-30T13:30:01;18.00;99.90
52267;DHT22;38223;50.940;4.034;2023-04-30T13:32:32;18.20;99.90
52267;DHT22;38223;50.940;4.034;2023-04-30T13:35:04;18.20;99.90
52267;DHT22;38223;50.940;4.034;2023-04-30T13:37:38;18.20;99.90
52267;DHT22;38223;50.940;4.034;2023-04-30T13:40:11;18.10;99.90
52267;DHT22;38223;50.940;4.034;2023-04-30T13:42:44;18.30;99.90
52267;DHT22;38223;50.940;4.034;2023-04-30T13:45:14;18.40;99.90
52267;DHT22;38223;50.940;4.034;2023-04-30T13:47:48;18.40;99.90
52267;DHT22;38223;50.940;4.034;2023-04-30T13:50:19;18.50;99.90
52267;DHT22;38223;50.940;4.034;2023-04-30T13:52:51;18.20;99.90
52267;DHT22;38223;50.940;4.034;2023-04-30T13:55:19;18.20;99.90
52267;DHT22;38223;50.940;4.034;2023-04-30T13:57:54;18.10;99.90
52267;DHT22;38223;50.940;4.034;2023-04-30T14:00:26;18.20;99.90
52267;DHT22;38223;50.940;4.034;2023-04-30T14:03:00;18.40;99.90
52267;DHT22;38223;50.940;4.034;2023-04-30T14:05:30;18.50;99.90
52267;DHT22;38223;50.940;4.034;2023-04-30T14:08:06;18.50;99.90
52267;DHT22;38223;50.940;4.034;2023-04-30T14:10:41;18.40;99.90
52267;DHT22;38223;50.940;4.034;2023-04-30T14:13:12;18.30;99.90
52267;DHT22;38223;50.940;4.034;2023-04-30T14:15:48;18.40;99.90
52267;DHT22;38223;50.940;4.034;2023-04-30T14:18:18;18.50;99.40
52267;DHT22;38223;50.940;4.034;2023-04-30T14:20:55;18.50;99.50
52267;DHT22;38223;50.940;4.034;2023-04-30T14:23:24;18.50;98.70
52267;DHT22;38223;50.940;4.034;2023-04-30T14:25:59;18.80;97.30
52267;DHT22;38223;50.940;4.034;2023-04-30T14:28:31;19.30;96.40
52267;DHT22;38223;50.940;4.034;2023-04-30T14:31:05;19.30;95.90
52267;DHT22;38223;50.940;4.034;2023-04-30T14:33:34;19.30;95.70
52267;DHT22;38223;50.940;4.034;2023-04-30T14:36:08;19.40;94.80
52267;DHT22;38223;50.940;4.034;2023-04-30T14:39:01;19.50;94.20
52267;DHT22;38223;50.940;4.034;2023-04-30T14:41:39;19.20;94.40
52267;DHT22;38223;50.940;4.034;2023-04-30T14:44:14;19.30;94.50
52267;DHT22;38223;50.940;4.034;2023-04-30T14:46:46;19.50;95.20
52267;DHT22;38223;50.940;4.034;2023-04-30T14:49:19;19.80;95.00
52267;DHT22;38223;50.940;4.034;2023-04-30T14:51:53;19.80;94.20
52267;DHT22;38223;50.940;4.034;2023-04-30T14:54:22;20.10;94.10
52267;DHT22;38223;50.940;4.034;2023-04-30T14:56:56;20.30;93.80
52267;DHT22;38223;50.940;4.034;2023-04-30T14:59:28;20.70;93.20
52267;DHT22;38223;50.940;4.034;2023-04-30T15:01:57;20.70;92.20
52267;DHT22;38223;50.940;4.034;2023-04-30T15:04:35;20.90;91.90
52267;DHT22;38223;50.940;4.034;2023-04-30T15:07:04;20.50;91.40
52267;DHT22;38223;50.940;4.034;2023-04-30T15:09:36;20.20;91.70
52267;DHT22;38223;50.940;4.034;2023-04-30T15:12:09;20.00;91.70
52267;DHT22;38223;50.940;4.034;2023-04-30T15:14:39;19.80;92.10
52267;DHT22;38223;50.940;4.034;2023-04-30T15:17:13;19.50;91.60
52267;DHT22;38223;50.940;4.034;2023-04-30T15:19:46;19.20;91.40
52267;DHT22;38223;50.940;4.034;2023-04-30T15:22:15;19.00;91.80
52267;DHT22;38223;50.940;4.034;2023-04-30T15:27:39;19.70;90.40
52267;DHT22;38223;50.940;4.034;2023-04-30T15:30:13;19.90;89.70
52267;DHT22;38223;50.940;4.034;2023-04-30T15:32:42;19.60;90.30
52267;DHT22;38223;50.940;4.034;2023-04-30T15:35:13;20.00;90.20
52267;DHT22;38223;50.940;4.034;2023-04-30T15:37:49;20.80;90.00
52267;DHT22;38223;50.940;4.034;2023-04-30T15:40:18;21.10;87.40
52267;DHT22;38223;50.940;4.034;2023-04-30T15:42:52;20.70;88.00
52267;DHT22;38223;50.940;4.034;2023-04-30T15:45:19;20.10;89.90
52267;DHT22;38223;50.940;4.034;2023-04-30T15:47:55;19.80;90.00
52267;DHT22;38223;50.940;4.034;2023-04-30T15:50:27;19.60;90.60
52267;DHT22;38223;50.940;4.034;2023-04-30T15:53:01;19.40;91.00
52267;DHT22;38223;50.940;4.034;2023-04-30T15:55:31;19.10;90.80
52267;DHT22;38223;50.940;4.034;2023-04-30T15:58:08;19.00;91.60
52267;DHT22;38223;50.940;4.034;2023-04-30T16:00:38;19.00;91.80
52267;DHT22;38223;50.940;4.034;2023-04-30T16:03:14;18.90;92.40
52267;DHT22;38223;50.940;4.034;2023-04-30T16:05:42;18.80;92.50
52267;DHT22;38223;50.940;4.034;2023-04-30T16:08:18;18.70;91.80
52267;DHT22;38223;50.940;4.034;2023-04-30T16:11:00;18.60;91.70
52267;DHT22;38223;50.940;4.034;2023-04-30T16:13:34;18.50;91.60
52267;DHT22;38223;50.940;4.034;2023-04-30T16:16:05;18.50;91.10
52267;DHT22;38223;50.940;4.034;2023-04-30T16:18:39;18.50;91.40
52267;DHT22;38223;50.940;4.034;2023-04-30T16:21:13;18.50;90.90
52267;DHT22;38223;50.940;4.034;2023-04-30T16:23:49;18.50;90.90
52267;DHT22;38223;50.940;4.034;2023-04-30T16:26:24;18.70;90.70